sensor_id;sensor_type;location;lat;lon;timestamp;temperature;humidity
48454;DHT22;34261;55.678;12.464;2023-11-18T00:04:34;3.10;99.90
48454;DHT22;34261;55.678;12.464;2023-11-18T00:07:01;3.10;99.90
48454;DHT22;34261;55.678;12.464;2023-11-18T00:09:28;3.10;99.90
48454;DHT22;34261;55.678;12.464;2023-11-18T00:12:19;3.10;99.90
48454;DHT22;34261;55.678;12.464;2023-11-18T00:15:38;3.00;99.90
48454;DHT22;34261;55.678;12.464;2023-11-18T00:18:05;3.00;99.90
48454;DHT22;34261;55.678;12.464;2023-11-18T00:20:55;3.00;99.90
48454;DHT22;34261;55.678;12.464;2023-11-18T00:23:43;2.90;99.90
48454;DHT22;34261;55.678;12.464;2023-11-18T00:27:10;2.90;99.90
48454;DHT22;34261;55.678;12.464;2023-11-18T00:29:36;2.90;99.90
48454;DHT22;34261;55.678;12.464;2023-11-18T00:32:23;2.90;99.90
48454;DHT22;34261;55.678;12.464;2023-11-18T00:35:22;2.90;99.90
48454;DHT22;34261;55.678;12.464;2023-11-18T00:41:43;2.80;99.90
48454;DHT22;34261;55.678;12.464;2023-11-18T00:44:49;2.70;99.90
48454;DHT22;34261;55.678;12.464;2023-11-18T04:42:20;1.30;99.90
48454;DHT22;34261;55.678;12.464;2023-11-18T04:44:46;1.20;99.90
48454;DHT22;34261;55.678;12.464;2023-11-18T04:47:12;1.30;99.90
48454;DHT22;34261;55.678;12.464;2023-11-18T04:49:37;1.20;99.90
48454;DHT22;34261;55.678;12.464;2023-11-18T04:52:03;1.20;99.90
48454;DHT22;34261;55.678;12.464;2023-11-18T04:54:29;1.20;99.90
48454;DHT22;34261;55.678;12.464;2023-11-18T04:56:54;1.20;99.90
48454;DHT22;34261;55.678;12.464;2023-11-18T04:59:20;1.20;99.90
48454;DHT22;34261;55.678;12.464;2023-11-18T05:01:46;1.20;99.90
48454;DHT22;34261;55.678;12.464;2023-11-18T05:04:12;1.20;99.90
48454;DHT22;34261;55.678;12.464;2023-11-18T05:06:38;1.20;99.90
48454;DHT22;34261;55.678;12.464;2023-11-18T05:09:04;1.30;99.90
48454;DHT22;34261;55.678;12.464;2023-11-18T05:11:33;1.30;99.90
48454;DHT22;34261;55.678;12.464;2023-11-18T05:13:58;1.30;99.90
48454;DHT22;34261;55.678;12.464;2023-11-18T05:16:24;1.30;99.90
48454;DHT22;34261;55.678;12.464;2023-11-18T05:18:50;1.20;99.90
48454;DHT22;34261;55.678;12.464;2023-11-18T05:21:15;1.20;99.90
48454;DHT22;34261;55.678;12.464;2023-11-18T05:23:41;1.20;99.90
48454;DHT22;34261;55.678;12.464;2023-11-18T05:26:07;1.20;99.90
48454;DHT22;34261;55.678;12.464;2023-11-18T05:28:32;1.10;99.90
48454;DHT22;34261;55.678;12.464;2023-11-18T05:30:58;1.20;99.90
48454;DHT22;34261;55.678;12.464;2023-11-18T05:33:27;1.30;99.90
48454;DHT22;34261;55.678;12.464;2023-11-18T05:35:54;1.20;99.90
48454;DHT22;34261;55.678;12.464;2023-11-18T05:38:20;1.20;99.90
48454;DHT22;34261;55.678;12.464;2023-11-18T05:40:50;1.20;99.90
48454;DHT22;34261;55.678;12.464;2023-11-18T05:43:32;1.20;99.90
48454;DHT22;34261;55.678;12.464;2023-11-18T05:46:06;1.20;99.90
48454;DHT22;34261;55.678;12.464;2023-11-18T05:48:46;1.10;99.90
48454;DHT22;34261;55.678;12.464;2023-11-18T05:51:12;1.10;99.90
48454;DHT22;34261;55.678;12.464;2023-11-18T05:53:42;1.10;99.90
48454;DHT22;34261;55.678;12.464;2023-11-18T05:56:11;1.10;99.90
48454;DHT22;34261;55.678;12.464;2023-11-18T05:58:36;1.00;99.90
48454;DHT22;34261;55.678;12.464;2023-11-18T06:01:05;1.00;99.90
48454;DHT22;34261;55.678;12.464;2023-11-18T06:03:33;1.10;99.90
48454;DHT22;34261;55.678;12.464;2023-11-18T06:05:58;1.10;99.90
48454;DHT22;34261;55.678;12.464;2023-11-18T06:08:24;1.10;99.90
48454;DHT22;34261;55.678;12.464;2023-11-18T06:10:50;1.10;99.90
48454;DHT22;34261;55.678;12.464;2023-11-18T06:13:22;1.10;99.90
48454;DHT22;34261;55.678;12.464;2023-11-18T06:15:48;1.10;99.90
48454;DHT22;34261;55.678;12.464;2023-11-18T06:18:15;1.10;99.90
48454;DHT22;34261;55.678;12.464;2023-11-18T06:20:40;1.00;99.90
48454;DHT22;34261;55.678;12.464;2023-11-18T06:23:06;1.00;99.90
48454;DHT22;34261;55.678;12.464;2023-11-18T06:25:32;1.00;99.90
48454;DHT22;34261;55.678;12.464;2023-11-18T06:28:00;1.00;99.90
48454;DHT22;34261;55.678;12.464;2023-11-18T06:30:26;1.00;99.90
48454;DHT22;34261;55.678;12.464;2023-11-18T06:32:53;1.10;99.90
48454;DHT22;34261;55.678;12.464;2023-11-18T06:35:18;1.10;99.90
48454;DHT22;34261;55.678;12.464;2023-11-18T06:37:46;1.00;99.90
48454;DHT22;34261;55.678;12.464;2023-11-18T06:40:13;1.00;99.90
48454;DHT22;34261;55.678;12.464;2023-11-18T06:42:45;1.00;99.90
48454;DHT22;34261;55.678;12.464;2023-11-18T07:53:16;1.40;99.90
48454;DHT22;34261;55.678;12.464;2023-11-18T07:55:42;1.40;99.90
48454;DHT22;34261;55.678;12.464;2023-11-18T07:58:09;1.40;99.90
48454;DHT22;34261;55.678;12.464;2023-11-18T08:00:41;1.50;99.90
48454;DHT22;34261;55.678;12.464;2023-11-18T08:03:14;1.50;99.90
48454;DHT22;34261;55.678;12.464;2023-11-18T08:05:42;1.50;99.90
48454;DHT22;34261;55.678;12.464;2023-11-18T08:08:11;1.50;99.90
48454;DHT22;34261;55.678;12.464;2023-11-18T08:10:40;1.60;99.90
48454;DHT22;34261;55.678;12.464;2023-11-18T08:13:10;1.60;99.90
48454;DHT22;34261;55.678;12.464;2023-11-18T08:15:41;1.70;99.90
48454;DHT22;34261;55.678;12.464;2023-11-18T08:18:08;1.70;99.90
48454;DHT22;34261;55.678;12.464;2023-11-18T08:20:36;1.80;99.90
48454;DHT22;34261;55.678;12.464;2023-11-18T08:23:02;1.90;99.90
48454;DHT22;34261;55.678;12.464;2023-11-18T08:25:28;1.90;99.90
48454;DHT22;34261;55.678;12.464;2023-11-18T08:27:53;2.00;99.90
48454;DHT22;34261;55.678;12.464;2023-11-18T08:30:22;2.00;99.90
48454;DHT22;34261;55.678;12.464;2023-11-18T08:32:59;2.10;99.90
48454;DHT22;34261;55.678;12.464;2023-11-18T08:35:51;2.20;99.90
48454;DHT22;34261;55.678;12.464;2023-11-18T08:38:43;2.30;99.90
48454;DHT22;34261;55.678;12.464;2023-11-18T08:41:25;2.40;99.90
48454;DHT22;34261;55.678;12.464;2023-11-18T08:43:52;2.50;99.90
48454;DHT22;34261;55.678;12.464;2023-11-18T08:46:40;2.50;99.90
48454;DHT22;34261;55.678;12.464;2023-11-18T08:49:12;2.60;99.90
48454;DHT22;34261;55.678;12.464;2023-11-18T08:51:49;2.70;99.90
48454;DHT22;34261;55.678;12.464;2023-11-18T08:54:25;2.80;99.90
48454;DHT22;34261;55.678;12.464;2023-11-18T08:57:05;2.80;99.90
48454;DHT22;34261;55.678;12.464;2023-11-18T08:59:57;2.90;99.90
48454;DHT22;34261;55.678;12.464;2023-11-18T09:02:33;3.00;99.90
48454;DHT22;34261;55.678;12.464;2023-11-18T11:52:23;8.40;99.90
48454;DHT22;34261;55.678;12.464;2023-11-18T11:55:05;8.50;99.90
48454;DHT22;34261;55.678;12.464;2023-11-18T11:57:38;8.60;99.90
48454;DHT22;34261;55.678;12.464;2023-11-18T12:00:08;8.60;99.90
48454;DHT22;34261;55.678;12.464;2023-11-18T12:02:51;8.60;99.90
48454;DHT22;34261;55.678;12.464;2023-11-18T12:05:26;8.60;99.90
48454;DHT22;34261;55.678;12.464;2023-11-18T12:07:52;8.70;99.90
48454;DHT22;34261;55.678;12.464;2023-11-18T12:10:26;8.70;99.90
48454;DHT22;34261;55.678;12.464;2023-11-18T12:13:10;8.60;99.90
48454;DHT22;34261;55.678;12.464;2023-11-18T12:15:51;8.50;99.90
48454;DHT22;34261;55.678;12.464;2023-11-18T12:18:23;8.50;99.90
48454;DHT22;34261;55.678;12.464;2023-11-18T12:20:50;8.40;99.90
48454;DHT22;34261;55.678;12.464;2023-11-18T12:23:28;8.40;99.90
48454;DHT22;34261;55.678;12.464;2023-11-18T12:25:54;8.40;99.90
48454;DHT22;34261;55.678;12.464;2023-11-18T12:30:53;8.30;99.90
48454;DHT22;34261;55.678;12.464;2023-11-18T12:43:09;8.00;99.90
48454;DHT22;34261;55.678;12.464;2023-11-18T12:49:58;7.90;99.90
